createdAt,value
2018-11-25T00:01:38.425Z,7.50
2018-11-25T00:04:05.699Z,7.40
2018-11-25T00:06:32.990Z,7.40
2018-11-25T00:09:00.269Z,7.40
2018-11-25T00:11:27.982Z,7.50
2018-11-25T00:13:55.221Z,7.50
2018-11-25T00:16:22.505Z,7.50
2018-11-25T00:18:49.846Z,7.50
2018-11-25T00:21:17.176Z,7.40
2018-11-25T00:23:44.407Z,7.40
2018-11-25T00:26:11.742Z,7.40
2018-11-25T00:28:38.990Z,7.50
2018-11-25T00:31:09.690Z,7.50
2018-11-25T00:33:33.553Z,7.50
2018-11-25T00:36:00.769Z,7.50
2018-11-25T00:38:28.019Z,7.50
2018-11-25T00:40:55.208Z,7.50
2018-11-25T00:43:22.556Z,7.50
2018-11-25T00:45:49.784Z,7.50
2018-11-25T00:48:17.016Z,7.50
2018-11-25T00:50:45.551Z,7.50
2018-11-25T00:53:12.884Z,7.50
2018-11-25T00:55:40.190Z,7.60
2018-11-25T00:58:07.393Z,7.50
2018-11-25T01:00:34.774Z,7.50
2018-11-25T01:03:02.015Z,7.50
2018-11-25T01:05:29.247Z,7.50
2018-11-25T01:07:56.415Z,7.50
2018-11-25T01:10:23.616Z,7.50
2018-11-25T01:12:50.865Z,7.50
2018-11-25T01:15:18.233Z,7.50
2018-11-25T01:17:45.496Z,7.50
2018-11-25T01:20:15.054Z,7.50
2018-11-25T01:22:42.348Z,7.50
2018-11-25T01:25:10.149Z,7.50
2018-11-25T01:27:37.433Z,7.50
2018-11-25T01:30:14.021Z,7.50
2018-11-25T01:32:41.210Z,7.50
2018-11-25T01:35:09.397Z,7.50
2018-11-25T01:37:36.653Z,7.50
2018-11-25T01:40:10.030Z,7.50
2018-11-25T01:42:37.363Z,7.50
2018-11-25T01:45:05.736Z,7.50
2018-11-25T01:47:32.933Z,7.50
2018-11-25T01:50:00.095Z,7.50
2018-11-25T01:52:27.343Z,7.50
2018-11-25T01:54:54.636Z,7.50
2018-11-25T01:57:21.813Z,7.50
2018-11-25T01:59:49.113Z,7.40
2018-11-25T02:02:16.381Z,7.40
2018-11-25T02:04:43.533Z,7.40
2018-11-25T02:07:10.828Z,7.40
2018-11-25T02:09:37.972Z,7.40
2018-11-25T02:12:05.450Z,7.40
2018-11-25T02:14:32.646Z,7.40
2018-11-25T02:16:59.919Z,7.40
2018-11-25T02:19:27.274Z,7.40
2018-11-25T02:21:54.433Z,7.40
2018-11-25T02:24:21.695Z,7.40
2018-11-25T02:26:49.073Z,7.30
2018-11-25T02:29:16.389Z,7.40
2018-11-25T02:31:43.521Z,7.40
2018-11-25T02:34:10.726Z,7.40
2018-11-25T02:36:37.946Z,7.40
2018-11-25T02:39:13.577Z,7.40
2018-11-25T02:41:40.707Z,7.40
2018-11-25T02:44:07.916Z,7.30
2018-11-25T02:46:35.045Z,7.40
2018-11-25T02:49:02.232Z,7.40
2018-11-25T02:51:29.398Z,7.40
2018-11-25T02:53:57.704Z,7.30
2018-11-25T02:56:24.902Z,7.30
2018-11-25T02:58:52.263Z,7.30
2018-11-25T03:01:19.476Z,7.40
2018-11-25T03:03:46.645Z,7.40
2018-11-25T03:06:13.978Z,7.40
2018-11-25T03:08:41.149Z,7.40
2018-11-25T03:11:08.323Z,7.30
2018-11-25T03:13:35.522Z,7.30
2018-11-25T03:16:02.721Z,7.40
2018-11-25T03:18:29.904Z,7.40
2018-11-25T03:20:57.132Z,7.40
2018-11-25T03:23:24.442Z,7.30
2018-11-25T03:25:52.319Z,7.30
2018-11-25T03:28:19.603Z,7.30
2018-11-25T03:30:46.732Z,7.30
2018-11-25T03:33:13.946Z,7.30
2018-11-25T03:35:41.153Z,7.30
2018-11-25T03:38:08.314Z,7.30
2018-11-25T03:40:35.526Z,7.40
2018-11-25T03:43:02.669Z,7.30
2018-11-25T03:45:29.901Z,7.40
2018-11-25T03:47:57.030Z,7.40
2018-11-25T03:50:24.300Z,7.40
2018-11-25T03:52:51.592Z,7.40
2018-11-25T03:55:18.797Z,7.40
2018-11-25T03:57:45.989Z,7.40
2018-11-25T04:00:15.426Z,7.40
2018-11-25T04:02:42.598Z,7.30
2018-11-25T04:05:10.951Z,7.40
2018-11-25T04:07:38.207Z,7.30
2018-11-25T04:10:08.879Z,7.30
2018-11-25T04:12:36.021Z,7.30
2018-11-25T04:15:03.381Z,7.40
2018-11-25T04:17:30.738Z,7.40
2018-11-25T04:19:57.966Z,7.40
2018-11-25T04:22:25.259Z,7.30
2018-11-25T04:24:52.440Z,7.30
2018-11-25T04:27:19.727Z,7.30
2018-11-25T04:29:47.757Z,7.30
2018-11-25T04:32:14.889Z,7.30
2018-11-25T04:34:42.127Z,7.30
2018-11-25T04:37:11.311Z,7.30
2018-11-25T04:42:17.402Z,7.30
2018-11-25T04:44:50.497Z,7.30
2018-11-25T04:47:23.312Z,7.30
2018-11-25T04:49:53.000Z,7.30
2018-11-25T04:52:20.458Z,7.30
2018-11-25T04:54:47.928Z,7.30
2018-11-25T04:57:15.219Z,7.30
2018-11-25T04:59:42.775Z,7.30
2018-11-25T05:02:10.693Z,7.30
2018-11-25T05:04:37.843Z,7.30
2018-11-25T05:07:05.649Z,7.20
2018-11-25T05:09:32.966Z,7.20
2018-11-25T05:12:04.718Z,7.20
2018-11-25T05:14:32.029Z,7.20
2018-11-25T05:16:59.265Z,7.20
2018-11-25T05:19:26.460Z,7.20
2018-11-25T05:21:53.626Z,7.20
2018-11-25T05:24:21.026Z,7.10
2018-11-25T05:26:48.272Z,7.20
2018-11-25T05:29:15.576Z,7.20
2018-11-25T05:31:42.803Z,7.20
2018-11-25T05:34:10.058Z,7.20
2018-11-25T05:36:37.342Z,7.20
2018-11-25T05:39:07.397Z,7.20
2018-11-25T05:41:34.738Z,7.10
2018-11-25T05:44:01.999Z,7.20
2018-11-25T05:46:29.362Z,7.10
2018-11-25T05:48:56.574Z,7.00
2018-11-25T05:51:23.838Z,7.10
2018-11-25T05:53:51.019Z,7.00
2018-11-25T05:56:18.213Z,7.00
2018-11-25T05:58:45.537Z,7.00
2018-11-25T06:01:12.770Z,7.10
2018-11-25T06:03:40.045Z,7.10
2018-11-25T06:06:07.481Z,7.10
2018-11-25T06:08:34.710Z,7.20
2018-11-25T06:11:01.986Z,7.20
2018-11-25T06:13:29.238Z,7.20
2018-11-25T06:15:56.404Z,7.10
2018-11-25T06:18:23.617Z,7.20
2018-11-25T06:20:50.782Z,7.10
2018-11-25T06:23:20.076Z,7.20
2018-11-25T06:25:47.344Z,7.10
2018-11-25T06:28:14.582Z,7.10
2018-11-25T06:30:41.959Z,7.00
2018-11-25T06:33:09.153Z,6.90
2018-11-25T06:35:36.284Z,6.90
2018-11-25T06:38:03.624Z,7.20
2018-11-25T06:40:30.876Z,7.70
2018-11-25T06:42:58.120Z,7.80
2018-11-25T06:45:26.710Z,7.60
2018-11-25T06:47:54.838Z,7.50
2018-11-25T06:50:22.185Z,7.40
2018-11-25T06:52:49.517Z,7.30
2018-11-25T06:55:16.824Z,7.30
2018-11-25T06:57:44.089Z,7.30
2018-11-25T07:00:16.682Z,7.30
2018-11-25T07:02:43.894Z,7.20
2018-11-25T07:05:11.155Z,7.20
2018-11-25T07:07:38.438Z,7.20
2018-11-25T07:10:08.973Z,7.20
2018-11-25T07:12:36.112Z,7.20
2018-11-25T07:15:03.880Z,7.20
2018-11-25T07:17:31.122Z,7.20
2018-11-25T07:19:58.349Z,7.10
2018-11-25T07:22:25.508Z,7.20
2018-11-25T07:24:52.716Z,7.20
2018-11-25T07:27:20.044Z,7.20
2018-11-25T07:29:47.197Z,7.20
2018-11-25T07:32:14.388Z,7.20
2018-11-25T07:34:41.603Z,7.20
2018-11-25T07:37:08.794Z,7.20
2018-11-25T07:39:36.042Z,7.10
2018-11-25T07:42:03.499Z,7.10
2018-11-25T07:44:32.945Z,7.10
2018-11-25T07:47:04.852Z,7.10
2018-11-25T07:49:32.977Z,7.00
2018-11-25T07:52:00.363Z,6.90
2018-11-25T07:54:28.879Z,7.00
2018-11-25T07:56:56.524Z,7.00
2018-11-25T07:59:24.354Z,7.00
2018-11-25T08:01:51.782Z,7.00
2018-11-25T08:04:20.266Z,7.10
2018-11-25T08:06:47.911Z,7.20
2018-11-25T08:09:15.112Z,7.10
2018-11-25T08:11:42.557Z,7.10
2018-11-25T08:14:10.239Z,7.10
2018-11-25T08:16:37.496Z,7.00
2018-11-25T08:19:05.595Z,7.00
2018-11-25T08:21:32.873Z,7.00
2018-11-25T08:24:00.759Z,7.00
2018-11-25T08:26:28.238Z,7.00
2018-11-25T08:28:56.737Z,7.10
2018-11-25T08:31:24.019Z,7.20
2018-11-25T08:34:00.366Z,7.20
2018-11-25T08:36:27.989Z,7.30
2018-11-25T08:38:55.422Z,7.40
2018-11-25T08:41:23.101Z,7.40
2018-11-25T08:43:50.348Z,7.40
2018-11-25T08:46:17.645Z,7.50
2018-11-25T08:48:45.156Z,7.50
2018-11-25T08:51:14.610Z,7.70
2018-11-25T08:53:43.023Z,7.80
2018-11-25T08:56:10.723Z,7.80
2018-11-25T08:58:38.832Z,7.70
2018-11-25T09:01:06.519Z,7.70
2018-11-25T09:03:35.362Z,7.90
2018-11-25T09:06:03.057Z,7.90
2018-11-25T09:08:31.301Z,7.80
2018-11-25T09:10:58.620Z,7.80
2018-11-25T09:13:25.921Z,7.70
2018-11-25T09:15:53.259Z,7.80
2018-11-25T09:18:20.673Z,7.70
2018-11-25T09:20:48.139Z,7.70
2018-11-25T09:23:15.829Z,7.60
2018-11-25T09:25:43.116Z,7.60
2018-11-25T09:28:10.832Z,7.60
2018-11-25T09:30:38.914Z,7.50
2018-11-25T09:33:06.210Z,7.60
2018-11-25T09:35:33.513Z,7.60
2018-11-25T09:38:00.823Z,7.70
2018-11-25T09:40:28.489Z,7.70
2018-11-25T09:42:56.934Z,7.70
2018-11-25T09:45:24.334Z,7.70
2018-11-25T09:47:58.630Z,7.70
2018-11-25T09:50:26.270Z,7.70
2018-11-25T09:52:53.724Z,7.70
2018-11-25T09:55:24.953Z,7.70
2018-11-25T09:57:59.557Z,7.70
2018-11-25T10:00:29.264Z,7.70
2018-11-25T10:02:56.558Z,7.80
2018-11-25T10:05:23.880Z,7.80
2018-11-25T10:07:51.183Z,7.80
2018-11-25T10:10:20.532Z,7.80
2018-11-25T10:12:47.911Z,7.80
2018-11-25T10:15:19.017Z,7.90
2018-11-25T10:17:46.731Z,7.80
2018-11-25T10:20:19.594Z,7.70
2018-11-25T10:22:47.023Z,7.60
2018-11-25T10:25:15.045Z,7.50
2018-11-25T10:27:42.587Z,7.40
2018-11-25T10:30:16.006Z,7.30
2018-11-25T10:32:43.701Z,7.30
2018-11-25T10:35:11.058Z,7.30
2018-11-25T10:37:38.471Z,7.40
2018-11-25T10:40:08.893Z,7.40
2018-11-25T10:42:36.307Z,7.40
2018-11-25T10:45:04.399Z,7.50
2018-11-25T10:47:31.983Z,7.50
2018-11-25T10:49:59.399Z,7.60
2018-11-25T10:52:29.765Z,7.60
2018-11-25T10:54:57.194Z,7.50
2018-11-25T10:57:24.678Z,7.50
2018-11-25T10:59:52.226Z,7.40
2018-11-25T11:02:24.248Z,7.40
2018-11-25T11:04:57.526Z,7.50
2018-11-25T11:07:30.623Z,7.60
2018-11-25T11:09:59.203Z,7.50
2018-11-25T11:12:26.805Z,7.60
2018-11-25T11:14:55.074Z,7.50
2018-11-25T11:17:23.097Z,7.60
2018-11-25T11:19:50.759Z,7.60
2018-11-25T11:22:18.192Z,7.60
2018-11-25T11:24:46.095Z,7.70
2018-11-25T11:27:13.525Z,7.70
2018-11-25T11:29:41.621Z,7.80
2018-11-25T11:32:10.487Z,8.00
2018-11-25T11:34:38.120Z,8.10
2018-11-25T11:37:06.601Z,8.20
2018-11-25T11:39:33.920Z,8.30
2018-11-25T11:42:02.090Z,8.40
2018-11-25T11:44:29.483Z,8.30
2018-11-25T11:46:57.351Z,8.30
2018-11-25T11:49:24.941Z,8.30
2018-11-25T11:51:53.170Z,8.40
2018-11-25T11:54:20.513Z,8.50
2018-11-25T11:56:48.021Z,8.60
2018-11-25T11:59:17.074Z,8.70
2018-11-25T12:01:44.453Z,8.80
2018-11-25T12:04:12.638Z,8.70
2018-11-25T12:06:40.823Z,8.60
2018-11-25T12:09:10.242Z,8.50
2018-11-25T12:11:38.319Z,8.50
2018-11-25T12:14:06.592Z,8.50
2018-11-25T12:16:33.930Z,8.70
2018-11-25T12:19:02.106Z,8.70
2018-11-25T12:21:29.741Z,8.70
2018-11-25T12:23:57.270Z,8.70
2018-11-25T12:26:24.745Z,8.60
2018-11-25T12:28:53.671Z,8.60
2018-11-25T12:31:21.070Z,8.60
2018-11-25T12:33:48.502Z,8.60
2018-11-25T12:36:16.062Z,8.70
2018-11-25T12:38:45.923Z,8.80
2018-11-25T12:41:13.416Z,8.90
2018-11-25T12:43:40.838Z,9.00
2018-11-25T12:46:09.368Z,8.90
2018-11-25T12:48:36.983Z,8.90
2018-11-25T12:51:04.692Z,8.90
2018-11-25T12:53:32.207Z,8.90
2018-11-25T12:55:59.783Z,8.90
2018-11-25T12:58:27.123Z,8.90
2018-11-25T13:00:54.900Z,8.90
2018-11-25T13:03:22.897Z,9.00
2018-11-25T13:05:50.320Z,9.10
2018-11-25T13:08:17.724Z,9.20
2018-11-25T13:10:45.176Z,9.30
2018-11-25T13:13:12.804Z,9.20
2018-11-25T13:15:42.399Z,9.20
2018-11-25T13:18:10.110Z,9.20
2018-11-25T13:20:37.507Z,9.20
2018-11-25T13:23:05.423Z,9.20
2018-11-25T13:25:32.793Z,9.20
2018-11-25T13:28:00.211Z,9.20
2018-11-25T13:30:29.905Z,9.20
2018-11-25T13:33:03.532Z,9.20
2018-11-25T13:35:32.402Z,9.20
2018-11-25T13:37:59.784Z,9.20
2018-11-25T13:40:27.235Z,9.10
2018-11-25T13:42:54.877Z,9.10
2018-11-25T13:45:22.518Z,9.10
2018-11-25T13:47:50.014Z,9.10
2018-11-25T13:50:18.040Z,9.20
2018-11-25T13:52:49.474Z,9.20
2018-11-25T13:55:18.715Z,9.10
2018-11-25T13:57:46.871Z,9.10
2018-11-25T14:00:18.675Z,9.10
2018-11-25T14:05:34.529Z,9.10
2018-11-25T14:08:02.625Z,9.10
2018-11-25T14:10:32.584Z,9.10
2018-11-25T14:13:01.092Z,9.10
2018-11-25T14:15:29.667Z,9.10
2018-11-25T14:17:55.801Z,9.00
2018-11-25T14:20:23.284Z,9.00
2018-11-25T14:22:59.529Z,9.00
2018-11-25T14:25:27.436Z,9.00
2018-11-25T14:27:57.114Z,9.00
2018-11-25T14:30:26.065Z,9.10
2018-11-25T14:32:53.401Z,9.20
2018-11-25T14:35:20.900Z,9.30
2018-11-25T14:37:48.271Z,9.40
2018-11-25T14:40:17.042Z,9.30
2018-11-25T14:42:45.070Z,9.30
2018-11-25T14:45:13.912Z,9.20
2018-11-25T14:47:41.318Z,9.30
2018-11-25T14:50:12.253Z,9.20
2018-11-25T14:52:40.993Z,9.20
2018-11-25T14:55:09.690Z,9.20
2018-11-25T14:57:37.665Z,9.20
2018-11-25T15:00:08.770Z,9.10
2018-11-25T15:02:36.116Z,9.10
2018-11-25T15:05:05.855Z,9.00
2018-11-25T15:07:33.337Z,9.00
2018-11-25T15:10:00.890Z,9.00
2018-11-25T15:12:28.346Z,8.90
2018-11-25T15:14:55.685Z,8.80
2018-11-25T15:17:23.263Z,8.90
2018-11-25T15:19:52.596Z,8.90
2018-11-25T15:22:19.875Z,8.90
2018-11-25T15:24:48.076Z,8.80
2018-11-25T15:27:15.880Z,8.80
2018-11-25T15:29:43.585Z,8.70
2018-11-25T15:32:11.623Z,8.60
2018-11-25T15:34:40.241Z,8.60
2018-11-25T15:37:08.676Z,8.60
2018-11-25T15:39:36.123Z,8.50
2018-11-25T15:42:03.715Z,8.50
2018-11-25T15:44:31.191Z,8.50
2018-11-25T15:46:58.787Z,8.50
2018-11-25T15:49:26.090Z,8.50
2018-11-25T15:51:53.468Z,8.40
2018-11-25T15:54:20.872Z,8.30
2018-11-25T15:56:48.239Z,8.30
2018-11-25T15:59:16.869Z,8.30
2018-11-25T16:01:44.269Z,8.30
2018-11-25T16:04:11.660Z,8.30
2018-11-25T16:06:39.134Z,8.30
2018-11-25T16:09:08.257Z,8.30
2018-11-25T16:11:35.681Z,8.30
2018-11-25T16:14:03.173Z,8.30
2018-11-25T16:16:30.623Z,8.30
2018-11-25T16:18:58.411Z,8.30
2018-11-25T16:21:25.497Z,8.30
2018-11-25T16:23:52.925Z,8.30
2018-11-25T16:26:23.969Z,8.30
2018-11-25T16:28:53.475Z,8.20
2018-11-25T16:31:20.875Z,8.20
2018-11-25T16:33:49.577Z,8.20
2018-11-25T16:36:17.062Z,8.30
2018-11-25T16:38:44.413Z,8.30
2018-11-25T16:41:11.864Z,8.30
2018-11-25T16:43:39.257Z,8.40
2018-11-25T16:46:06.545Z,8.30
2018-11-25T16:48:33.868Z,8.20
2018-11-25T16:51:01.144Z,8.20
2018-11-25T16:53:28.479Z,8.20
2018-11-25T16:55:55.727Z,8.20
2018-11-25T16:58:23.035Z,8.20
2018-11-25T17:00:50.305Z,8.30
2018-11-25T17:03:17.653Z,8.30
2018-11-25T17:05:46.682Z,8.30
2018-11-25T17:09:34.840Z,8.30
2018-11-25T17:12:02.244Z,8.20
2018-11-25T17:14:33.915Z,8.40
2018-11-25T17:16:58.191Z,8.40
2018-11-25T17:19:25.602Z,8.30
2018-11-25T17:21:52.959Z,8.20
2018-11-25T17:24:22.075Z,8.20
2018-11-25T17:26:49.496Z,8.20
2018-11-25T17:29:16.972Z,8.10
2018-11-25T17:31:44.397Z,8.20
2018-11-25T17:34:11.754Z,8.10
2018-11-25T17:36:39.192Z,8.10
2018-11-25T17:39:07.696Z,8.10
2018-11-25T17:41:35.017Z,8.10
2018-11-25T17:44:02.326Z,8.10
2018-11-25T17:46:29.693Z,8.10
2018-11-25T17:48:57.150Z,8.20
2018-11-25T17:51:24.644Z,8.10
2018-11-25T17:53:51.919Z,8.00
2018-11-25T17:56:19.817Z,8.00
2018-11-25T17:58:47.195Z,7.90
2018-11-25T18:01:14.526Z,7.90
2018-11-25T18:03:41.793Z,7.90
2018-11-25T18:06:09.252Z,7.90
2018-11-25T18:08:37.025Z,7.90
2018-11-25T18:11:05.342Z,7.90
2018-11-25T18:13:35.221Z,7.90
2018-11-25T18:16:03.706Z,8.00
2018-11-25T18:18:36.989Z,8.00
2018-11-25T18:21:06.941Z,8.00
2018-11-25T18:23:34.253Z,8.10
2018-11-25T18:26:01.785Z,8.10
2018-11-25T18:28:29.355Z,8.00
2018-11-25T18:30:56.767Z,7.90
2018-11-25T18:33:24.210Z,7.80
2018-11-25T18:35:51.683Z,7.80
2018-11-25T18:38:19.257Z,7.90
2018-11-25T18:40:47.327Z,7.90
2018-11-25T18:43:14.817Z,8.10
2018-11-25T18:45:42.389Z,8.20
2018-11-25T18:48:17.766Z,8.40
2018-11-25T18:50:45.808Z,8.70
2018-11-25T18:53:13.399Z,8.70
2018-11-25T18:55:40.112Z,8.40
2018-11-25T18:58:07.593Z,8.40
2018-11-25T19:00:43.884Z,8.40
2018-11-25T19:03:11.396Z,8.40
2018-11-25T19:05:39.750Z,8.80
2018-11-25T19:08:07.935Z,8.60
2018-11-25T19:10:35.572Z,8.50
2018-11-25T19:13:03.194Z,8.50
2018-11-25T19:15:31.122Z,8.40
2018-11-25T19:17:59.683Z,8.20
2018-11-25T19:20:28.037Z,8.00
2018-11-25T19:22:56.201Z,7.80
2018-11-25T19:25:23.599Z,7.70
2018-11-25T19:27:51.699Z,7.60
2018-11-25T19:30:26.447Z,7.50
2018-11-25T19:32:47.797Z,7.50
2018-11-25T19:35:16.318Z,7.60
2018-11-25T19:37:44.111Z,7.90
2018-11-25T19:40:17.827Z,8.10
2018-11-25T19:42:45.980Z,8.30
2018-11-25T19:45:18.863Z,8.50
2018-11-25T19:47:46.765Z,8.80
2018-11-25T19:50:24.605Z,8.70
2018-11-25T19:52:52.187Z,8.60
2018-11-25T19:55:19.790Z,8.30
2018-11-25T19:57:47.601Z,8.20
2018-11-25T20:00:22.463Z,8.00
2018-11-25T20:02:50.072Z,8.00
2018-11-25T20:05:17.568Z,7.90
2018-11-25T20:07:45.262Z,7.70
2018-11-25T20:10:14.865Z,8.00
2018-11-25T20:12:43.972Z,8.10
2018-11-25T20:15:14.340Z,8.30
2018-11-25T20:17:42.248Z,8.20
2018-11-25T20:20:24.966Z,8.20
2018-11-25T20:22:52.826Z,8.00
2018-11-25T20:25:20.540Z,8.10
2018-11-25T20:27:51.070Z,7.90
2018-11-25T20:30:20.054Z,7.80
2018-11-25T20:32:53.858Z,7.80
2018-11-25T20:35:21.327Z,7.80
2018-11-25T20:37:54.821Z,7.80
2018-11-25T20:40:22.190Z,7.70
2018-11-25T20:42:50.358Z,7.70
2018-11-25T20:45:24.908Z,7.70
2018-11-25T20:47:52.636Z,7.70
2018-11-25T20:50:20.363Z,7.70
2018-11-25T20:52:53.929Z,7.60
2018-11-25T20:55:24.094Z,7.60
2018-11-25T20:57:52.585Z,7.50
2018-11-25T21:00:21.694Z,7.50
2018-11-25T21:02:49.598Z,7.40
2018-11-25T21:05:17.333Z,7.40
2018-11-25T21:07:44.856Z,7.50
2018-11-25T21:10:14.383Z,7.50
2018-11-25T21:12:43.917Z,7.50
2018-11-25T21:15:12.050Z,7.40
2018-11-25T21:17:40.179Z,7.30
2018-11-25T21:20:14.388Z,7.30
2018-11-25T21:22:44.368Z,7.30
2018-11-25T21:25:13.924Z,7.20
2018-11-25T21:27:42.789Z,7.30
2018-11-25T21:30:14.754Z,7.30
2018-11-25T21:32:42.298Z,7.30
2018-11-25T21:35:13.041Z,7.50
2018-11-25T21:37:40.674Z,7.50
2018-11-25T21:40:11.279Z,7.60
2018-11-25T21:42:38.877Z,7.60
2018-11-25T21:45:08.192Z,7.60
2018-11-25T21:47:35.614Z,7.60
2018-11-25T21:50:03.778Z,7.50
2018-11-25T21:52:31.121Z,7.50
2018-11-25T21:54:58.501Z,7.50
2018-11-25T21:57:26.697Z,7.50
2018-11-25T21:59:54.438Z,7.50
2018-11-25T22:02:22.838Z,7.50
2018-11-25T22:04:55.093Z,7.40
2018-11-25T22:07:22.877Z,7.50
2018-11-25T22:09:50.256Z,7.50
2018-11-25T22:12:17.679Z,7.50
2018-11-25T22:14:44.981Z,7.40
2018-11-25T22:17:13.160Z,7.60
2018-11-25T22:19:40.445Z,7.60
2018-11-25T22:22:07.729Z,7.60
2018-11-25T22:24:36.173Z,7.60
2018-11-25T22:27:04.182Z,7.60
2018-11-25T22:29:31.489Z,7.60
2018-11-25T22:31:58.803Z,7.60
2018-11-25T22:34:26.031Z,7.60
2018-11-25T22:36:54.807Z,7.60
2018-11-25T22:39:22.424Z,7.80
2018-11-25T22:41:49.777Z,7.90
2018-11-25T22:44:17.039Z,8.10
2018-11-25T22:46:44.575Z,8.80
2018-11-25T22:49:11.853Z,8.80
2018-11-25T22:51:39.115Z,8.60
2018-11-25T22:54:06.319Z,8.30
2018-11-25T22:56:34.741Z,8.10
2018-11-25T22:59:02.655Z,8.10
2018-11-25T23:01:30.981Z,8.10
2018-11-25T23:04:09.902Z,8.00
2018-11-25T23:06:48.578Z,8.00
2018-11-25T23:09:15.778Z,8.10
2018-11-25T23:11:43.191Z,8.00
2018-11-25T23:14:10.628Z,8.00
2018-11-25T23:16:37.857Z,7.90
2018-11-25T23:19:05.614Z,7.80
2018-11-25T23:21:32.921Z,7.80
2018-11-25T23:24:00.158Z,7.70
2018-11-25T23:26:27.325Z,7.80
2018-11-25T23:28:54.721Z,7.80
2018-11-25T23:31:21.889Z,7.90
2018-11-25T23:33:49.101Z,7.80
2018-11-25T23:36:16.333Z,7.70
2018-11-25T23:38:43.555Z,7.70
2018-11-25T23:41:15.501Z,7.60
2018-11-25T23:43:42.758Z,7.60
2018-11-25T23:46:09.943Z,7.50
2018-11-25T23:48:37.216Z,7.50
2018-11-25T23:51:04.874Z,7.40
2018-11-25T23:53:32.025Z,7.40
2018-11-25T23:55:59.208Z,7.50
2018-11-25T23:58:26.638Z,7.50
